createdAt,value
2023-04-06T00:01:54.937Z,48.60
2023-04-06T00:04:22.736Z,48.63
2023-04-06T00:06:50.610Z,48.84
2023-04-06T00:09:20.272Z,49.00
2023-04-06T00:11:48.139Z,49.11
2023-04-06T00:14:18.618Z,49.57
2023-04-06T00:16:46.638Z,49.41
2023-04-06T00:19:14.867Z,49.71
2023-04-06T00:21:43.105Z,49.39
2023-04-06T00:24:11.094Z,49.49
2023-04-06T00:26:40.286Z,49.77
2023-04-06T00:29:08.936Z,49.55
2023-04-06T00:31:37.206Z,49.74
2023-04-06T00:34:05.066Z,49.41
2023-04-06T00:36:33.232Z,49.31
2023-04-06T00:39:01.139Z,48.91
2023-04-06T00:41:28.966Z,49.17
2023-04-06T00:43:58.813Z,48.41
2023-04-06T00:46:26.754Z,47.76
2023-04-06T00:48:54.673Z,47.45
2023-04-06T00:51:22.677Z,47.21
2023-04-06T00:53:50.963Z,47.07
2023-04-06T00:56:18.949Z,47.23
2023-04-06T00:58:47.154Z,47.43
2023-04-06T01:01:16.706Z,47.22
2023-04-06T01:03:45.729Z,47.98
2023-04-06T01:06:13.583Z,48.26
2023-04-06T01:08:41.907Z,48.25
2023-04-06T01:11:09.797Z,48.53
2023-04-06T01:13:37.996Z,48.41
2023-04-06T01:16:06.730Z,48.97
2023-04-06T01:18:36.517Z,49.30
2023-04-06T01:21:04.875Z,49.40
2023-04-06T01:23:34.115Z,49.84
2023-04-06T01:26:01.922Z,49.92
2023-04-06T01:28:30.009Z,50.15
2023-04-06T01:30:57.843Z,50.44
2023-04-06T01:33:26.103Z,51.04
2023-04-06T01:35:54.143Z,51.63
2023-04-06T01:38:22.066Z,51.55
2023-04-06T01:40:51.351Z,52.05
2023-04-06T01:43:19.188Z,51.68
2023-04-06T01:45:46.970Z,51.61
2023-04-06T01:48:14.869Z,51.75
2023-04-06T01:50:42.655Z,52.34
2023-04-06T01:53:10.777Z,51.92
2023-04-06T01:55:38.581Z,51.28
2023-04-06T01:58:07.821Z,51.11
2023-04-06T02:00:36.045Z,51.28
2023-04-06T02:03:03.857Z,51.39
2023-04-06T02:05:34.194Z,50.62
2023-04-06T02:08:02.066Z,51.24
2023-04-06T02:10:29.774Z,50.49
2023-04-06T02:12:57.544Z,50.61
2023-04-06T02:15:26.732Z,50.77
2023-04-06T02:17:54.684Z,50.69
2023-04-06T02:20:22.484Z,49.85
2023-04-06T02:22:50.497Z,49.58
2023-04-06T02:25:18.471Z,50.27
2023-04-06T02:27:46.245Z,49.28
2023-04-06T02:30:14.383Z,49.93
2023-04-06T02:32:43.572Z,49.65
2023-04-06T02:35:11.440Z,49.49
2023-04-06T02:37:39.237Z,50.42
2023-04-06T02:40:08.206Z,50.38
2023-04-06T02:42:36.172Z,50.40
2023-04-06T02:45:04.072Z,49.87
2023-04-06T02:47:31.998Z,50.66
2023-04-06T02:50:01.333Z,50.34
2023-04-06T02:52:29.174Z,50.04
2023-04-06T02:54:56.932Z,50.73
2023-04-06T02:57:26.011Z,50.88
2023-04-06T02:59:53.770Z,50.84
2023-04-06T03:02:21.613Z,50.47
2023-04-06T03:04:49.510Z,50.57
2023-04-06T03:07:18.711Z,51.10
2023-04-06T03:09:46.506Z,50.27
2023-04-06T03:12:14.249Z,50.52
2023-04-06T03:14:42.035Z,50.93
2023-04-06T03:17:09.856Z,51.54
2023-04-06T03:19:37.674Z,51.01
2023-04-06T03:22:05.416Z,51.58
2023-04-06T03:24:34.565Z,50.92
2023-04-06T03:27:02.549Z,51.20
2023-04-06T03:29:31.206Z,51.01
2023-04-06T03:31:58.943Z,51.62
2023-04-06T03:34:26.682Z,51.08
2023-04-06T03:37:03.192Z,51.13
2023-04-06T03:39:38.943Z,51.96
2023-04-06T03:42:06.884Z,51.01
2023-04-06T03:44:34.645Z,51.95
2023-04-06T03:47:03.310Z,51.41
2023-04-06T03:49:31.392Z,51.57
2023-04-06T03:51:59.143Z,51.63
2023-04-06T03:54:26.916Z,52.26
2023-04-06T03:56:56.170Z,52.46
2023-04-06T03:59:24.092Z,51.79
2023-04-06T04:01:52.168Z,51.73
2023-04-06T04:04:19.983Z,52.36
2023-04-06T04:06:47.713Z,51.77
2023-04-06T04:09:15.500Z,52.09
2023-04-06T04:11:43.227Z,52.69
2023-04-06T04:14:12.449Z,52.50
2023-04-06T04:16:40.580Z,53.64
2023-04-06T04:19:08.675Z,52.55
2023-04-06T04:21:44.688Z,53.00
2023-04-06T04:24:12.650Z,53.30
2023-04-06T04:26:40.870Z,52.97
2023-04-06T04:29:09.341Z,53.75
2023-04-06T04:31:38.859Z,53.28
2023-04-06T04:34:07.954Z,53.79
2023-04-06T04:36:35.793Z,52.96
2023-04-06T04:39:03.661Z,53.61
2023-04-06T04:41:31.804Z,53.32
2023-04-06T04:43:59.648Z,54.09
2023-04-06T04:46:27.464Z,54.20
2023-04-06T04:48:56.772Z,53.70
2023-04-06T04:51:25.748Z,53.83
2023-04-06T04:53:53.585Z,54.34
2023-04-06T04:56:21.314Z,54.13
2023-04-06T04:58:49.158Z,53.66
2023-04-06T05:01:17.135Z,54.15
2023-04-06T05:03:45.163Z,54.32
2023-04-06T05:06:14.492Z,54.50
2023-04-06T05:08:42.732Z,55.11
2023-04-06T05:11:10.950Z,55.01
2023-04-06T05:13:38.746Z,55.13
2023-04-06T05:16:06.928Z,54.79
2023-04-06T05:18:34.793Z,55.33
2023-04-06T05:21:02.617Z,54.42
2023-04-06T05:23:31.785Z,54.09
2023-04-06T05:25:59.790Z,55.01
2023-04-06T05:28:27.599Z,55.13
2023-04-06T05:30:55.608Z,53.86
2023-04-06T05:33:23.383Z,53.62
2023-04-06T05:35:51.404Z,54.16
2023-04-06T05:38:19.170Z,54.57
2023-04-06T05:40:48.391Z,54.14
2023-04-06T05:43:16.124Z,53.74
2023-04-06T05:45:46.366Z,53.59
2023-04-06T05:48:14.221Z,52.42
2023-04-06T05:50:42.131Z,50.88
2023-04-06T05:53:09.946Z,51.04
2023-04-06T05:55:37.700Z,51.09
2023-04-06T05:58:06.840Z,51.14
2023-04-06T06:00:35.499Z,50.39
2023-04-06T06:03:05.252Z,51.25
2023-04-06T06:05:33.141Z,50.57
2023-04-06T06:08:03.126Z,50.63
2023-04-06T06:10:31.257Z,50.81
2023-04-06T06:12:59.007Z,51.22
2023-04-06T06:15:28.207Z,50.94
2023-04-06T06:17:57.990Z,50.88
2023-04-06T06:20:25.904Z,51.21
2023-04-06T06:22:53.662Z,51.28
2023-04-06T06:25:22.451Z,51.67
2023-04-06T06:27:50.213Z,51.19
2023-04-06T06:30:19.364Z,51.68
2023-04-06T06:32:49.643Z,51.17
2023-04-06T06:35:17.785Z,51.44
2023-04-06T06:37:45.964Z,51.16
2023-04-06T06:40:14.304Z,50.48
2023-04-06T06:42:42.250Z,50.27
2023-04-06T06:45:11.066Z,50.90
2023-04-06T06:47:38.829Z,50.49
2023-04-06T06:50:09.345Z,50.88
2023-04-06T06:52:37.057Z,49.98
2023-04-06T06:55:05.188Z,49.46
2023-04-06T06:57:42.272Z,49.34
2023-04-06T07:00:13.609Z,49.02
2023-04-06T07:02:41.843Z,49.19
2023-04-06T07:05:26.195Z,47.68
2023-04-06T07:07:55.765Z,47.01
2023-04-06T07:10:23.882Z,47.63
2023-04-06T07:12:51.642Z,46.64
2023-04-06T07:15:19.503Z,46.98
2023-04-06T07:17:47.292Z,46.65
2023-04-06T07:20:16.897Z,47.14
2023-04-06T07:22:45.474Z,46.15
2023-04-06T07:25:13.497Z,46.19
2023-04-06T07:27:41.300Z,45.73
2023-04-06T07:30:10.239Z,45.54
2023-04-06T07:32:38.009Z,45.60
2023-04-06T07:35:06.496Z,44.86
2023-04-06T07:37:36.144Z,44.29
2023-04-06T07:40:03.982Z,44.47
2023-04-06T07:42:31.779Z,53.18
2023-04-06T07:44:59.572Z,46.66
2023-04-06T07:47:27.403Z,43.96
2023-04-06T07:49:57.098Z,42.59
2023-04-06T07:52:24.892Z,43.01
2023-04-06T07:54:54.045Z,42.81
2023-04-06T07:57:21.812Z,42.87
2023-04-06T07:59:49.550Z,43.10
2023-04-06T08:02:17.470Z,42.67
2023-04-06T08:04:46.332Z,41.76
2023-04-06T08:07:14.526Z,41.68
2023-04-06T08:09:42.298Z,42.04
2023-04-06T08:12:11.522Z,43.23
2023-04-06T08:14:39.348Z,42.89
2023-04-06T08:17:07.134Z,42.41
2023-04-06T08:19:34.982Z,42.74
2023-04-06T08:22:03.498Z,42.10
2023-04-06T08:24:33.339Z,42.69
2023-04-06T08:27:01.173Z,41.95
2023-04-06T08:29:30.398Z,41.99
2023-04-06T08:31:58.186Z,42.38
2023-04-06T08:34:25.993Z,40.65
2023-04-06T08:36:53.760Z,41.32
2023-04-06T08:39:26.429Z,41.52
2023-04-06T08:41:57.894Z,40.99
2023-04-06T08:44:26.204Z,41.08
2023-04-06T08:46:55.956Z,41.66
2023-04-06T08:49:23.884Z,39.76
2023-04-06T08:51:52.143Z,39.95
2023-04-06T08:54:20.054Z,39.70
2023-04-06T08:56:48.174Z,40.00
2023-04-06T08:59:16.195Z,40.48
2023-04-06T09:01:45.065Z,40.58
2023-04-06T09:04:15.187Z,40.21
2023-04-06T09:06:43.513Z,40.32
2023-04-06T09:09:11.375Z,41.20
2023-04-06T09:11:46.939Z,41.02
2023-04-06T09:14:14.971Z,41.07
2023-04-06T09:16:43.649Z,40.30
2023-04-06T09:19:11.834Z,40.45
2023-04-06T09:21:41.844Z,40.31
2023-04-06T09:24:10.964Z,40.64
2023-04-06T09:26:49.098Z,41.09
2023-04-06T09:29:28.330Z,40.94
2023-04-06T09:32:04.358Z,40.15
2023-04-06T09:34:32.495Z,40.30
2023-04-06T09:37:02.389Z,40.01
2023-04-06T09:39:30.486Z,39.81
2023-04-06T09:41:58.419Z,41.01
2023-04-06T09:44:27.061Z,40.60
2023-04-06T09:46:59.630Z,40.02
2023-04-06T09:49:29.713Z,39.63
2023-04-06T09:52:02.615Z,39.39
2023-04-06T09:54:31.565Z,38.23
2023-04-06T09:57:05.936Z,38.54
2023-04-06T09:59:40.525Z,38.63
2023-04-06T10:02:10.915Z,38.49
2023-04-06T10:04:42.377Z,38.09
2023-04-06T10:07:14.135Z,38.30
2023-04-06T10:09:41.907Z,38.75
2023-04-06T10:12:10.143Z,36.85
2023-04-06T10:14:38.223Z,37.21
2023-04-06T10:17:06.575Z,36.59
2023-04-06T10:19:44.392Z,36.38
2023-04-06T10:22:14.760Z,36.37
2023-04-06T10:24:42.666Z,37.80
2023-04-06T10:27:12.264Z,38.81
2023-04-06T10:29:46.161Z,37.39
2023-04-06T10:32:14.071Z,38.53
2023-04-06T10:34:41.885Z,39.02
2023-04-06T10:37:15.232Z,39.26
2023-04-06T10:39:49.965Z,39.40
2023-04-06T10:42:18.353Z,39.23
2023-04-06T10:44:46.588Z,39.09
2023-04-06T10:47:20.728Z,39.11
2023-04-06T10:49:48.615Z,38.80
2023-04-06T10:52:17.950Z,38.58
2023-04-06T10:54:47.819Z,38.40
2023-04-06T10:57:16.908Z,38.28
2023-04-06T10:59:45.530Z,38.33
2023-04-06T11:02:22.789Z,39.02
2023-04-06T11:04:58.203Z,39.83
2023-04-06T11:07:28.466Z,39.37
2023-04-06T11:10:12.727Z,39.37
2023-04-06T11:12:43.892Z,40.18
2023-04-06T11:15:12.366Z,40.15
2023-04-06T11:17:40.240Z,39.50
2023-04-06T11:20:12.911Z,38.70
2023-04-06T11:22:52.160Z,38.51
2023-04-06T11:25:20.294Z,39.57
2023-04-06T11:27:48.777Z,39.17
2023-04-06T11:30:16.918Z,38.38
2023-04-06T11:32:46.082Z,38.48
2023-04-06T11:35:16.457Z,38.71
2023-04-06T11:37:46.077Z,37.27
2023-04-06T11:40:15.910Z,36.48
2023-04-06T11:42:43.708Z,37.11
2023-04-06T11:45:12.912Z,37.76
2023-04-06T11:47:41.715Z,37.93
2023-04-06T11:50:12.438Z,37.92
2023-04-06T11:52:40.873Z,37.28
2023-04-06T11:55:18.206Z,37.24
2023-04-06T11:57:46.328Z,37.23
2023-04-06T12:00:15.004Z,37.22
2023-04-06T12:02:47.934Z,36.83
2023-04-06T12:05:15.902Z,35.95
2023-04-06T12:07:43.901Z,36.91
2023-04-06T12:10:12.120Z,36.89
2023-04-06T12:12:41.315Z,37.80
2023-04-06T12:15:09.998Z,36.48
2023-04-06T12:17:37.989Z,36.58
2023-04-06T12:20:17.990Z,36.68
2023-04-06T12:22:53.425Z,37.14
2023-04-06T12:25:21.571Z,36.49
2023-04-06T12:27:50.930Z,36.21
2023-04-06T12:30:18.887Z,35.46
2023-04-06T12:32:48.316Z,35.65
2023-04-06T12:35:18.514Z,36.51
2023-04-06T12:37:46.326Z,36.76
2023-04-06T12:40:15.805Z,37.39
2023-04-06T12:42:43.782Z,36.23
2023-04-06T12:45:13.592Z,36.52
2023-04-06T12:47:41.489Z,35.70
2023-04-06T12:50:09.935Z,35.43
2023-04-06T12:52:37.730Z,34.37
2023-04-06T12:55:07.043Z,34.86
2023-04-06T12:57:34.867Z,34.42
2023-04-06T13:00:02.904Z,35.17
2023-04-06T13:02:32.324Z,35.93
2023-04-06T13:05:00.129Z,35.89
2023-04-06T13:07:27.991Z,35.38
2023-04-06T13:09:55.822Z,34.94
2023-04-06T13:12:24.294Z,35.12
2023-04-06T13:14:53.628Z,35.42
2023-04-06T13:17:22.118Z,35.86
2023-04-06T13:19:51.432Z,36.08
2023-04-06T13:22:19.220Z,34.83
2023-04-06T13:24:47.398Z,35.03
2023-04-06T13:27:15.472Z,34.79
2023-04-06T13:29:43.291Z,34.54
2023-04-06T13:32:11.590Z,34.43
2023-04-06T13:34:39.397Z,36.20
2023-04-06T13:37:08.594Z,35.45
2023-04-06T13:39:36.350Z,34.72
2023-04-06T13:42:04.292Z,32.83
2023-04-06T13:44:32.233Z,33.39
2023-04-06T13:47:00.653Z,32.65
2023-04-06T13:49:28.796Z,32.35
2023-04-06T13:51:56.673Z,32.65
2023-04-06T13:54:25.973Z,31.43
2023-04-06T13:56:53.774Z,30.47
2023-04-06T13:59:21.542Z,32.16
2023-04-06T14:01:49.849Z,32.60
2023-04-06T14:04:17.795Z,32.75
2023-04-06T14:06:47.367Z,33.45
2023-04-06T14:09:15.499Z,33.74
2023-04-06T14:11:44.636Z,33.82
2023-04-06T14:14:12.369Z,33.79
2023-04-06T14:16:40.999Z,33.09
2023-04-06T14:19:08.900Z,34.03
2023-04-06T14:21:36.636Z,34.16
2023-04-06T14:24:04.637Z,34.42
2023-04-06T14:26:33.080Z,33.79
2023-04-06T14:29:02.326Z,33.91
2023-04-06T14:31:30.133Z,34.46
2023-04-06T14:33:57.947Z,34.95
2023-04-06T14:36:28.231Z,34.40
2023-04-06T14:38:56.037Z,34.46
2023-04-06T14:41:25.875Z,34.08
2023-04-06T14:43:54.533Z,33.51
2023-04-06T14:46:23.776Z,34.31
2023-04-06T14:48:51.880Z,33.99
2023-04-06T14:51:19.682Z,34.71
2023-04-06T14:53:47.702Z,34.25
2023-04-06T14:56:22.268Z,34.17
2023-04-06T14:58:50.451Z,34.66
2023-04-06T15:01:18.811Z,35.18
2023-04-06T15:03:48.451Z,35.18
2023-04-06T15:06:17.499Z,35.79
2023-04-06T15:08:45.723Z,35.70
2023-04-06T15:11:14.273Z,36.12
2023-04-06T15:13:42.822Z,35.91
2023-04-06T15:16:11.085Z,36.46
2023-04-06T15:18:38.900Z,36.68
2023-04-06T15:21:08.329Z,36.90
2023-04-06T15:23:37.243Z,36.52
2023-04-06T15:26:05.097Z,36.82
2023-04-06T15:28:32.833Z,36.33
2023-04-06T15:31:00.826Z,35.82
2023-04-06T15:33:28.834Z,36.44
2023-04-06T15:35:56.779Z,36.75
2023-04-06T15:38:25.944Z,35.89
2023-04-06T15:40:53.901Z,36.79
2023-04-06T15:43:21.688Z,36.73
2023-04-06T15:45:49.544Z,37.15
2023-04-06T15:48:17.374Z,36.83
2023-04-06T15:50:45.132Z,37.24
2023-04-06T15:53:13.226Z,37.18
2023-04-06T15:55:42.364Z,36.84
2023-04-06T15:58:10.404Z,37.45
2023-04-06T16:00:38.262Z,38.14
2023-04-06T16:03:06.454Z,39.36
2023-04-06T16:05:35.005Z,40.45
2023-04-06T16:08:12.775Z,41.33
2023-04-06T16:10:42.015Z,41.72
2023-04-06T16:13:10.133Z,41.66
2023-04-06T16:15:38.199Z,41.65
2023-04-06T16:18:06.518Z,41.75
2023-04-06T16:20:36.457Z,41.50
2023-04-06T16:23:04.294Z,42.59
2023-04-06T16:25:32.104Z,42.89
2023-04-06T16:28:01.330Z,42.68
2023-04-06T16:30:30.349Z,42.94
2023-04-06T16:32:58.478Z,43.67
2023-04-06T16:35:26.347Z,44.38
2023-04-06T16:37:54.239Z,44.72
2023-04-06T16:40:22.195Z,45.63
2023-04-06T16:42:50.059Z,46.15
2023-04-06T16:45:19.338Z,46.80
2023-04-06T16:47:49.508Z,46.51
2023-04-06T16:50:17.529Z,46.71
2023-04-06T16:52:45.508Z,46.50
2023-04-06T16:55:13.622Z,46.72
2023-04-06T16:57:41.384Z,46.86
2023-04-06T17:00:10.426Z,47.08
2023-04-06T17:02:39.829Z,47.46
2023-04-06T17:05:08.245Z,48.58
2023-04-06T17:07:36.306Z,48.84
2023-04-06T17:10:04.749Z,49.76
2023-04-06T17:12:32.562Z,50.40
2023-04-06T17:15:00.343Z,50.93
2023-04-06T17:17:28.162Z,51.11
2023-04-06T17:19:57.377Z,52.11
2023-04-06T17:22:25.259Z,52.44
2023-04-06T17:24:53.012Z,52.51
2023-04-06T17:27:23.492Z,52.90
2023-04-06T17:29:51.473Z,52.72
2023-04-06T17:32:21.443Z,53.27
2023-04-06T17:34:49.205Z,53.84
2023-04-06T17:37:18.321Z,54.52
2023-04-06T17:39:46.245Z,54.57
2023-04-06T17:42:14.679Z,55.68
2023-04-06T17:44:42.494Z,56.61
2023-04-06T17:47:10.456Z,56.87
2023-04-06T17:49:38.294Z,58.21
2023-04-06T17:52:06.404Z,58.88
2023-04-06T17:54:36.822Z,59.18
2023-04-06T17:57:07.552Z,59.07
2023-04-06T17:59:35.409Z,60.01
2023-04-06T18:02:04.397Z,61.02
2023-04-06T18:04:32.615Z,61.77
2023-04-06T18:07:00.427Z,62.74
2023-04-06T18:09:28.225Z,63.59
2023-04-06T18:11:57.779Z,64.54
2023-04-06T18:14:25.627Z,66.30
2023-04-06T18:16:53.377Z,67.33
2023-04-06T18:19:21.223Z,67.87
2023-04-06T18:21:48.980Z,68.37
2023-04-06T18:24:27.141Z,69.20
2023-04-06T18:27:02.619Z,70.07
2023-04-06T18:29:30.377Z,70.53
2023-04-06T18:31:58.207Z,71.53
2023-04-06T18:34:26.034Z,72.26
2023-04-06T18:36:53.818Z,72.79
2023-04-06T18:39:21.612Z,73.90
2023-04-06T18:41:49.417Z,74.06
2023-04-06T18:44:18.588Z,74.74
2023-04-06T18:46:47.041Z,74.68
2023-04-06T18:49:14.838Z,75.60
2023-04-06T18:51:43.089Z,75.86
2023-04-06T18:54:10.875Z,76.00
2023-04-06T18:56:39.003Z,76.41
2023-04-06T18:59:06.803Z,77.38
2023-04-06T19:01:38.603Z,77.67
2023-04-06T19:04:06.604Z,77.71
2023-04-06T19:06:35.193Z,77.93
2023-04-06T19:09:05.000Z,78.52
2023-04-06T19:11:33.167Z,78.93
2023-04-06T19:14:00.987Z,79.35
2023-04-06T19:16:29.293Z,79.67
2023-04-06T19:18:59.922Z,80.00
2023-04-06T19:21:28.193Z,80.54
2023-04-06T19:23:56.632Z,80.78
2023-04-06T19:26:27.783Z,80.96
2023-04-06T19:28:55.668Z,81.71
2023-04-06T19:31:23.488Z,82.21
2023-04-06T19:33:51.987Z,81.83
2023-04-06T19:36:21.776Z,82.48
2023-04-06T19:38:49.569Z,82.45
2023-04-06T19:41:17.542Z,82.68
2023-04-06T19:43:45.366Z,82.54
2023-04-06T19:46:14.735Z,83.11
2023-04-06T19:48:43.219Z,82.27
2023-04-06T19:51:11.282Z,82.48
2023-04-06T19:53:40.422Z,82.39
2023-04-06T19:56:08.242Z,82.56
2023-04-06T19:58:36.065Z,82.90
2023-04-06T20:01:04.440Z,83.37
2023-04-06T20:03:32.479Z,83.26
2023-04-06T20:06:00.831Z,83.94
2023-04-06T20:08:29.828Z,83.27
2023-04-06T20:11:03.266Z,83.65
2023-04-06T20:13:31.492Z,84.03
2023-04-06T20:15:59.951Z,84.90
2023-04-06T20:18:27.793Z,84.56
2023-04-06T20:20:56.174Z,84.68
2023-04-06T20:23:23.988Z,84.88
2023-04-06T20:25:51.779Z,85.47
2023-04-06T20:28:21.903Z,85.64
2023-04-06T20:30:52.724Z,85.88
2023-04-06T20:33:20.550Z,86.20
2023-04-06T20:35:48.265Z,86.38
2023-04-06T20:38:17.651Z,86.37
2023-04-06T20:40:52.024Z,86.46
2023-04-06T20:43:25.364Z,86.87
2023-04-06T20:45:53.188Z,86.79
2023-04-06T20:48:20.965Z,87.00
2023-04-06T20:50:49.347Z,86.38
2023-04-06T20:53:20.987Z,86.67
2023-04-06T20:55:49.056Z,86.72
2023-04-06T20:58:20.581Z,86.89
2023-04-06T21:00:49.948Z,86.21
2023-04-06T21:03:18.135Z,86.86
2023-04-06T21:05:51.676Z,87.12
2023-04-06T21:08:19.532Z,87.24
2023-04-06T21:10:47.325Z,87.14
2023-04-06T21:13:15.054Z,87.17
2023-04-06T21:15:42.870Z,87.22
2023-04-06T21:18:12.386Z,88.18
2023-04-06T21:20:40.430Z,87.61
2023-04-06T21:23:08.281Z,87.48
2023-04-06T21:25:37.635Z,87.27
2023-04-06T21:28:06.064Z,86.70
2023-04-06T21:30:37.181Z,86.88
2023-04-06T21:33:05.193Z,87.04
2023-04-06T21:35:34.535Z,87.89
2023-04-06T21:38:02.262Z,86.96
2023-04-06T21:40:30.120Z,87.45
2023-04-06T21:42:58.189Z,87.16
2023-04-06T21:45:26.251Z,87.13
2023-04-06T21:47:54.253Z,87.12
2023-04-06T21:50:22.162Z,87.87
2023-04-06T21:52:51.554Z,87.66
2023-04-06T21:55:19.662Z,87.77
2023-04-06T21:57:47.749Z,88.06
2023-04-06T22:00:16.844Z,87.47
2023-04-06T22:02:46.142Z,87.38
2023-04-06T22:05:14.308Z,87.63
2023-04-06T22:07:42.322Z,87.14
2023-04-06T22:10:11.670Z,87.84
2023-04-06T22:12:39.443Z,87.88
2023-04-06T22:15:08.518Z,87.93
2023-04-06T22:17:36.708Z,88.55
2023-04-06T22:20:04.906Z,87.80
2023-04-06T22:22:32.697Z,88.70
2023-04-06T22:25:01.244Z,88.70
2023-04-06T22:27:30.806Z,87.90
2023-04-06T22:29:58.735Z,88.57
2023-04-06T22:32:26.670Z,88.28
2023-04-06T22:34:54.799Z,88.49
2023-04-06T22:37:22.819Z,88.29
2023-04-06T22:39:50.800Z,88.42
2023-04-06T22:42:18.635Z,88.69
2023-04-06T22:44:47.875Z,88.98
2023-04-06T22:47:15.683Z,88.56
2023-04-06T22:49:44.629Z,89.13
2023-04-06T22:52:12.478Z,88.47
2023-04-06T22:54:48.035Z,88.85
2023-04-06T22:57:16.025Z,89.52
2023-04-06T22:59:44.200Z,89.29
2023-04-06T23:02:14.415Z,89.47
2023-04-06T23:04:42.424Z,89.00
2023-04-06T23:07:12.344Z,89.46
2023-04-06T23:09:41.211Z,89.41
2023-04-06T23:12:09.337Z,89.66
2023-04-06T23:14:37.104Z,89.43
2023-04-06T23:17:05.593Z,89.73
2023-04-06T23:19:35.000Z,89.54
2023-04-06T23:22:03.334Z,90.27
2023-04-06T23:24:31.285Z,89.96
2023-04-06T23:26:59.219Z,89.55
2023-04-06T23:29:26.997Z,89.89
2023-04-06T23:31:54.956Z,90.53
2023-04-06T23:34:22.966Z,89.87
2023-04-06T23:36:53.147Z,90.00
2023-04-06T23:39:20.986Z,90.78
2023-04-06T23:41:48.979Z,91.02
2023-04-06T23:44:16.828Z,90.24
2023-04-06T23:46:44.744Z,90.31
2023-04-06T23:49:12.781Z,90.44
2023-04-06T23:51:40.555Z,90.15
2023-04-06T23:54:10.497Z,90.70
2023-04-06T23:56:38.331Z,90.54
2023-04-06T23:59:06.226Z,90.13
